Time;durP1;ratioP1;P1;durP2;ratioP2;P2;SDS_P1;SDS_P2;PMS_P1;PMS_P2;Temp;Humidity;BMP_temperature;BMP_pressure;BME280_temperature;BME280_humidity;BME280_pressure;Samples;Min_cycle;Max_cycle;Signal;HPM_P1;HPM_P2
2022/10/25 00:01:30;;;;;;;30.95;25.65;;;;;;;13.87;71.41;99452.20;1654556;86;21067;-42
2022/10/25 00:03:56;;;;;;;33.38;26.02;;;;;;;13.81;71.41;99452.93;1654649;86;21570;-41
2022/10/25 00:06:23;;;;;;;27.95;23.92;;;;;;;13.75;71.44;99456.58;1654571;86;21557;-41
2022/10/25 00:08:50;;;;;;;30.50;23.07;;;;;;;13.70;71.61;99458.29;1654557;86;21238;-41
2022/10/25 00:11:24;;;;;;;29.98;22.80;;;;;;;13.73;71.75;99443.14;1654460;86;20989;-42
2022/10/25 00:13:52;;;;;;;32.15;24.55;;;;;;;13.77;71.74;99446.09;1654479;86;20985;-41
2022/10/25 00:16:23;;;;;;;32.60;24.32;;;;;;;13.79;71.67;99441.06;1654653;86;21049;-41
2022/10/25 00:18:51;;;;;;;31.05;25.52;;;;;;;13.77;71.72;99433.05;1654425;86;21546;-41
2022/10/25 00:21:19;;;;;;;31.77;23.38;;;;;;;13.78;71.72;99427.81;1654510;86;22244;-41
2022/10/25 00:23:46;;;;;;;31.45;23.67;;;;;;;13.81;71.61;99422.95;1648668;86;21102;-41
2022/10/25 00:26:13;;;;;;;30.68;24.10;;;;;;;13.83;71.40;99418.70;1654377;86;21037;-41
2022/10/25 00:28:39;;;;;;;31.57;23.75;;;;;;;13.80;71.42;99416.72;1654286;86;21084;-41
2022/10/25 00:31:09;;;;;;;33.58;25.12;;;;;;;13.77;71.55;99421.58;1654391;86;21511;-41
2022/10/25 00:33:36;;;;;;;;;;;;;;;13.74;71.65;99416.89;1656930;86;21892;-42
2022/10/25 00:36:11;;;;;;;30.15;25.10;;;;;;;13.73;71.74;99421.34;1689459;84;20113;-41
2022/10/25 00:38:38;;;;;;;29.50;23.45;;;;;;;13.62;72.00;99414.45;1719829;83;21040;-41
2022/10/25 00:41:05;;;;;;;29.25;23.85;;;;;;;13.63;71.92;99416.02;1720803;83;21014;-41
2022/10/25 00:43:40;;;;;;;32.45;24.52;;;;;;;13.67;72.00;99416.05;1720709;83;20929;-42
2022/10/25 00:46:19;;;;;;;31.35;24.57;;;;;;;13.69;71.81;99415.88;1720605;83;23178;-41
2022/10/25 00:48:54;;;;;;;29.25;25.23;;;;;;;13.63;71.83;99414.66;1718512;83;20933;-41
2022/10/25 00:51:25;;;;;;;33.88;26.02;;;;;;;13.55;72.19;99421.23;1714739;83;20985;-41
2022/10/25 00:53:51;;;;;;;;;;;;;;;13.52;72.26;99417.09;1723553;83;20985;-41
2022/10/25 00:56:27;;;;;;;31.85;23.92;;;;;;;13.51;72.24;99415.55;1702559;84;20883;-41
2022/10/25 00:58:59;;;;;;;31.57;24.63;;;;;;;13.46;72.22;99419.38;1702565;84;21892;-41
2022/10/25 01:01:25;;;;;;;30.50;25.60;;;;;;;13.41;72.37;99408.25;1702750;84;21066;-41
2022/10/25 01:03:55;;;;;;;33.88;24.92;;;;;;;13.37;72.57;99406.09;1702515;84;20942;-41
2022/10/25 01:06:30;;;;;;;32.05;26.20;;;;;;;13.35;72.70;99394.02;1702769;84;21006;-41
2022/10/25 01:08:57;;;;;;;34.65;24.20;;;;;;;13.35;72.71;99398.89;1701228;84;21042;-41
2022/10/25 01:11:23;;;;;;;29.23;24.12;;;;;;;13.38;72.59;99394.62;1702505;84;21113;-41
2022/10/25 01:13:50;;;;;;;28.27;24.55;;;;;;;13.43;72.40;99380.08;1702341;84;21619;-42
2022/10/25 01:16:58;;;;;;;29.67;24.95;;;;;;;13.49;72.13;99379.16;1702593;84;21021;-41
2022/10/25 01:19:57;;;;;;;32.80;26.20;;;;;;;13.48;71.95;99375.64;1702502;84;21062;-41
2022/10/25 01:22:55;;;;;;;33.75;26.52;;;;;;;13.38;72.11;99372.83;1702555;84;20947;-41
2022/10/25 01:26:07;;;;;;;30.15;24.27;;;;;;;13.32;72.10;99371.03;1670850;84;21236;-41
2022/10/25 01:28:58;;;;;;;29.37;24.05;;;;;;;13.33;72.02;99371.82;1702575;84;21046;-41
2022/10/25 01:31:42;;;;;;;30.57;24.77;;;;;;;13.35;71.81;99371.66;1700805;84;21068;-41
2022/10/25 01:34:18;;;;;;;32.63;25.48;;;;;;;13.34;71.71;99370.09;1702767;84;20950;-41
2022/10/25 01:37:02;;;;;;;29.70;25.10;;;;;;;13.33;71.61;99369.09;1699791;84;21575;-41
2022/10/25 01:39:37;;;;;;;31.68;25.70;;;;;;;13.31;71.41;99367.34;1690557;84;21159;-41
2022/10/25 01:42:20;;;;;;;28.57;22.95;;;;;;;13.26;71.22;99367.13;1699285;84;20993;-41
2022/10/25 01:45:08;;;;;;;27.85;22.85;;;;;;;13.23;71.14;99372.52;1652574;84;21575;-41
2022/10/25 01:47:57;;;;;;;28.65;23.65;;;;;;;13.24;70.92;99372.14;1699370;84;21097;-41
2022/10/25 01:50:30;;;;;;;29.05;24.23;;;;;;;13.21;70.88;99376.20;1699641;84;21758;-41
2022/10/25 01:52:56;;;;;;;31.15;23.67;;;;;;;13.18;70.93;99376.94;1706910;83;21113;-41
2022/10/25 01:55:34;;;;;;;34.67;25.17;;;;;;;13.15;70.83;99374.98;1707241;84;21047;-41
2022/10/25 01:58:32;;;;;;;30.43;23.57;;;;;;;13.12;70.88;99383.91;1707136;84;20911;-41
2022/10/25 02:01:19;;;;;;;31.70;23.67;;;;;;;13.09;70.99;99379.95;1707397;84;21037;-41
2022/10/25 02:03:55;;;;;;;28.25;23.73;;;;;;;13.03;71.12;99382.80;1707439;84;21018;-41
2022/10/25 02:06:35;;;;;;;31.12;23.77;;;;;;;12.96;71.50;99378.67;1707421;83;21252;-41
2022/10/25 02:09:15;;;;;;;29.00;25.00;;;;;;;12.91;71.53;99378.44;1707297;83;20978;-41
2022/10/25 02:11:42;;;;;;;28.60;25.17;;;;;;;12.85;71.57;99373.70;1707436;83;20990;-41
2022/10/25 02:14:23;;;;;;;27.05;22.73;;;;;;;12.78;71.59;99370.92;1707199;84;21001;-41
2022/10/25 02:17:04;;;;;;;26.73;22.95;;;;;;;12.76;71.67;99379.45;1694427;84;21085;-41
2022/10/25 02:19:34;;;;;;;31.77;23.73;;;;;;;12.77;71.47;99376.16;1707311;84;21141;-41
2022/10/25 02:22:01;;;;;;;;;;;;;;;12.72;71.50;99384.08;1709903;83;20974;-41
2022/10/25 02:24:29;;;;;;;30.00;24.67;;;;;;;12.67;71.76;99382.26;1707391;84;20106;-41
2022/10/25 02:26:55;;;;;;;29.70;24.23;;;;;;;12.56;72.10;99386.22;1707282;84;21042;-41
2022/10/25 02:29:23;;;;;;;29.92;23.85;;;;;;;12.57;72.18;99387.22;1701826;84;20982;-41
2022/10/25 02:31:49;;;;;;;30.27;23.52;;;;;;;12.63;72.20;99384.95;1707342;84;21511;-41
2022/10/25 02:34:18;;;;;;;28.25;23.67;;;;;;;12.68;72.08;99391.99;1707344;84;21550;-41
2022/10/25 02:36:49;;;;;;;34.60;24.82;;;;;;;12.68;72.41;99391.99;1701565;84;20976;-41
2022/10/25 02:39:17;;;;;;;30.08;24.72;;;;;;;12.70;72.57;99386.95;1699732;84;20998;-41
2022/10/25 02:41:44;;;;;;;32.00;24.02;;;;;;;12.72;72.70;99379.20;1699706;84;21105;-41
2022/10/25 02:44:11;;;;;;;26.68;23.05;;;;;;;12.76;72.76;99369.14;1699793;84;21308;-41
2022/10/25 02:46:38;;;;;;;29.87;23.07;;;;;;;12.81;72.62;99368.80;1699687;84;21022;-41
2022/10/25 02:49:05;;;;;;;25.77;22.07;;;;;;;12.91;72.37;99373.57;1699855;84;21670;-41
2022/10/25 02:51:31;;;;;;;28.92;24.10;;;;;;;12.93;72.25;99375.32;1699654;84;21665;-41
2022/10/25 02:53:58;;;;;;;29.65;23.62;;;;;;;12.93;72.22;99382.13;1699947;84;21094;-41
2022/10/25 02:56:25;;;;;;;30.92;24.15;;;;;;;12.94;72.29;99377.67;1699559;84;21145;-41
2022/10/25 02:58:54;;;;;;;29.92;22.65;;;;;;;12.94;72.26;99376.89;1694169;84;21046;-41
2022/10/25 03:01:21;;;;;;;26.93;22.62;;;;;;;12.95;72.04;99377.10;1680391;84;21481;-41
2022/10/25 03:03:48;;;;;;;28.57;22.77;;;;;;;12.93;71.91;99377.47;1699767;84;21761;-41
2022/10/25 03:06:15;;;;;;;26.17;23.38;;;;;;;12.90;72.15;99377.44;1699665;84;21035;-41
2022/10/25 03:08:43;;;;;;;29.02;24.65;;;;;;;12.87;72.29;99371.40;1699689;84;22162;-41
2022/10/25 03:11:11;;;;;;;29.85;25.48;;;;;;;12.87;72.39;99379.56;1699934;84;20986;-41
2022/10/25 03:13:38;;;;;;;29.80;22.70;;;;;;;12.87;72.41;99378.20;1699647;84;21057;-41
2022/10/25 03:16:07;;;;;;;24.45;21.33;;;;;;;12.90;72.25;99376.08;1699921;84;21074;-41
2022/10/25 03:18:35;;;;;;;30.32;23.18;;;;;;;12.95;72.23;99375.73;1699769;83;21026;-41
2022/10/25 03:21:03;;;;;;;29.10;23.07;;;;;;;12.94;72.05;99377.67;1699854;84;21666;-41
2022/10/25 03:23:30;;;;;;;28.95;23.42;;;;;;;12.88;72.18;99367.50;1699575;84;21508;-41
2022/10/25 03:25:58;;;;;;;27.15;23.35;;;;;;;12.87;72.47;99375.48;1699614;84;21039;-41
2022/10/25 03:28:26;;;;;;;25.97;22.60;;;;;;;12.88;72.25;99371.00;1699998;84;21307;-41
2022/10/25 03:30:54;;;;;;;27.93;21.07;;;;;;;12.92;72.16;99365.62;1699893;84;21077;-41
2022/10/25 03:33:21;;;;;;;24.87;21.33;;;;;;;12.99;72.10;99365.09;1699970;84;21212;-41
2022/10/25 03:35:52;;;;;;;25.80;22.25;;;;;;;13.07;71.90;99365.92;1699787;83;20994;-41
2022/10/25 03:38:19;;;;;;;28.40;21.95;;;;;;;13.09;71.69;99367.70;1699992;84;21508;-41
2022/10/25 03:40:46;;;;;;;25.85;21.90;;;;;;;13.05;71.50;99360.87;1699939;84;21049;-41
2022/10/25 03:43:13;;;;;;;31.25;22.62;;;;;;;13.02;71.60;99352.69;1699995;84;21109;-41
2022/10/25 03:48:41;;;;;;;23.07;20.52;;;;;;;13.11;71.51;99338.76;1797137;79;22633;-41
2022/10/25 03:51:07;;;;;;;23.60;20.05;;;;;;;13.10;71.35;99344.78;1757457;81;20938;-41
2022/10/25 03:53:34;;;;;;;22.67;20.15;;;;;;;13.11;71.24;99357.27;1757314;81;21242;-41
2022/10/25 03:56:01;;;;;;;24.00;20.80;;;;;;;13.12;71.10;99353.36;1757324;81;21011;-41
2022/10/25 03:58:28;;;;;;;22.02;18.87;;;;;;;13.09;70.95;99354.09;1757110;81;21003;-41
2022/10/25 04:00:55;;;;;;;26.10;18.95;;;;;;;13.11;71.07;99357.27;1757287;81;21530;-41
2022/10/25 04:03:21;;;;;;;24.90;19.25;;;;;;;13.17;70.89;99344.85;1757353;81;20909;-41
2022/10/25 04:05:48;;;;;;;22.02;18.90;;;;;;;13.22;70.82;99348.59;1757249;81;21955;-41
2022/10/25 04:08:15;;;;;;;23.95;19.80;;;;;;;13.24;70.88;99353.09;1757068;81;20894;-41
2022/10/25 04:10:42;;;;;;;24.87;19.85;;;;;;;13.25;70.79;99347.85;1757242;81;20977;-41
2022/10/25 04:13:10;;;;;;;25.10;20.97;;;;;;;13.27;70.71;99342.01;1738325;81;20969;-41
2022/10/25 04:15:37;;;;;;;24.35;19.00;;;;;;;13.27;70.67;99347.45;1757143;81;21033;-41
2022/10/25 04:18:05;;;;;;;20.55;18.20;;;;;;;13.27;70.27;99344.16;1757133;81;21206;-41
2022/10/25 04:20:33;;;;;;;17.77;14.73;;;;;;;13.28;70.26;99336.20;1757149;81;21537;-41
2022/10/25 04:23:00;;;;;;;22.70;19.65;;;;;;;13.30;70.30;99338.55;1757055;81;20929;-41
2022/10/25 04:25:26;;;;;;;23.55;19.77;;;;;;;13.31;70.31;99327.87;1756957;81;20961;-41
2022/10/25 04:27:53;;;;;;;24.52;20.52;;;;;;;13.30;70.18;99329.81;1757185;81;21009;-41
2022/10/25 04:30:20;;;;;;;25.72;20.23;;;;;;;13.29;70.01;99328.23;1757129;81;21226;-41
2022/10/25 04:32:48;;;;;;;23.77;18.62;;;;;;;13.20;69.78;99326.42;1756870;81;21605;-41
2022/10/25 04:35:16;;;;;;;20.60;17.35;;;;;;;13.16;69.95;99326.19;1756987;81;20961;-41
2022/10/25 04:37:43;;;;;;;19.70;17.60;;;;;;;13.19;69.87;99320.77;1756981;81;20973;-41
2022/10/25 04:40:12;;;;;;;25.62;19.12;;;;;;;13.20;69.78;99326.42;1757029;81;21001;-41
2022/10/25 04:42:39;;;;;;;;;;;;;;;13.16;69.64;99321.53;1759568;81;21025;-41
2022/10/25 04:45:08;;;;;;;21.00;18.32;;;;;;;13.12;69.63;99328.11;1756880;81;21443;-41
2022/10/25 04:47:36;;;;;;;24.27;19.67;;;;;;;12.99;69.97;99330.29;1757057;81;21534;-41
2022/10/25 04:50:04;;;;;;;24.12;18.65;;;;;;;12.96;70.02;99327.76;1757416;81;21045;-41
2022/10/25 04:52:30;;;;;;;20.17;17.80;;;;;;;12.98;69.93;99330.86;1757474;81;21048;-41
2022/10/25 04:54:57;;;;;;;23.80;18.98;;;;;;;13.04;69.86;99328.01;1757678;81;21083;-41
2022/10/25 04:57:24;;;;;;;24.35;19.30;;;;;;;13.09;69.79;99328.23;1757251;81;20926;-41
2022/10/25 04:59:51;;;;;;;22.02;18.15;;;;;;;12.81;69.71;99284.47;1756970;81;21027;-41
2022/10/25 05:02:18;;;;;;;24.27;19.00;;;;;;;13.10;69.72;99323.58;1756679;81;20965;-41
2022/10/25 05:04:44;;;;;;;25.32;19.12;;;;;;;13.08;69.61;99323.37;1750897;81;20977;-41
2022/10/25 05:07:12;;;;;;;20.45;17.42;;;;;;;13.06;69.64;99319.48;1756749;81;21230;-41
2022/10/25 05:09:40;;;;;;;23.87;17.40;;;;;;;13.07;69.52;99325.88;1750658;81;21028;-41
2022/10/25 05:12:09;;;;;;;22.50;17.95;;;;;;;13.09;69.40;99328.23;1756760;81;20961;-41
2022/10/25 05:14:35;;;;;;;22.07;17.80;;;;;;;13.11;69.34;99320.52;1756783;81;21045;-41
2022/10/25 05:17:04;;;;;;;21.02;18.25;;;;;;;13.10;69.38;99323.00;1757025;81;20981;-41
2022/10/25 05:19:30;;;;;;;24.87;18.20;;;;;;;13.10;69.30;99322.22;1756666;81;21245;-41
2022/10/25 05:21:57;;;;;;;22.50;18.73;;;;;;;13.06;69.33;99327.64;1756760;81;20934;-41
2022/10/25 05:24:25;;;;;;;17.98;16.07;;;;;;;13.03;69.34;99328.38;1756780;81;21008;-41
2022/10/25 05:26:52;;;;;;;20.00;16.35;;;;;;;13.05;69.32;99330.16;1756675;81;21052;-41
2022/10/25 05:29:19;;;;;;;23.05;18.37;;;;;;;13.08;69.26;99328.03;1756780;81;21021;-41
2022/10/25 05:31:46;;;;;;;20.97;17.12;;;;;;;13.11;69.12;99335.49;1756692;81;21238;-41
2022/10/25 05:34:13;;;;;;;22.17;19.17;;;;;;;13.09;69.07;99340.48;1756764;81;20997;-42
2022/10/25 05:36:40;;;;;;;22.30;17.65;;;;;;;13.07;68.96;99336.77;1756708;81;21001;-41
2022/10/25 05:39:07;;;;;;;23.62;17.87;;;;;;;13.02;68.83;99340.44;1756846;81;21498;-41
2022/10/25 05:41:35;;;;;;;22.98;17.40;;;;;;;12.96;68.98;99342.72;1756808;81;21025;-41
2022/10/25 05:44:02;;;;;;;20.45;16.48;;;;;;;12.91;68.95;99335.48;1756697;81;21093;-41
2022/10/25 05:46:29;;;;;;;18.82;15.00;;;;;;;12.83;69.21;99334.61;1756698;81;21008;-41
2022/10/25 05:48:59;;;;;;;20.05;15.65;;;;;;;12.88;69.31;99337.56;1756764;81;20890;-41
2022/10/25 05:51:28;;;;;;;22.75;16.40;;;;;;;12.94;69.24;99339.58;1756819;81;21516;-41
2022/10/25 05:53:58;;;;;;;22.15;16.20;;;;;;;12.93;69.27;99333.14;1757043;81;21064;-41
2022/10/25 05:56:28;;;;;;;18.82;16.45;;;;;;;12.96;69.48;99335.13;1757004;81;21209;-41
2022/10/25 05:58:57;;;;;;;19.00;15.70;;;;;;;13.00;69.37;99333.22;1756936;81;21017;-41
2022/10/25 06:01:25;;;;;;;19.05;14.65;;;;;;;13.00;69.34;99333.22;1757065;81;20969;-41
2022/10/25 06:03:54;;;;;;;12.98;10.95;;;;;;;13.07;69.26;99327.24;1757113;81;21090;-41
2022/10/25 06:06:23;;;;;;;18.85;14.33;;;;;;;13.16;69.35;99332.42;1757086;81;21558;-41
2022/10/25 06:08:51;;;;;;;17.52;14.78;;;;;;;13.25;69.18;99327.44;1756806;81;21488;-41
2022/10/25 06:11:18;;;;;;;19.50;14.83;;;;;;;13.30;69.26;99329.81;1729198;81;20949;-41
2022/10/25 06:13:46;;;;;;;17.55;14.00;;;;;;;13.38;69.20;99333.34;1756724;81;20964;-41
2022/10/25 06:16:16;;;;;;;19.30;16.17;;;;;;;13.45;69.17;99327.97;1756706;81;20989;-41
2022/10/25 06:18:44;;;;;;;18.00;13.93;;;;;;;13.51;69.04;99331.12;1756772;81;21550;-41
2022/10/25 06:21:21;;;;;;;19.95;15.50;;;;;;;13.59;68.64;99332.14;1756804;81;21227;-41
2022/10/25 06:23:49;;;;;;;16.85;14.80;;;;;;;13.65;68.25;99333.93;1756795;81;20933;-41
2022/10/25 06:26:24;;;;;;;19.20;15.72;;;;;;;13.69;68.44;99334.73;1756686;81;20961;-41
2022/10/25 06:28:54;;;;;;;22.05;15.05;;;;;;;13.72;68.38;99329.87;1757188;81;20969;-41
2022/10/25 06:31:20;;;;;;;;;;;;;;;13.72;68.12;99333.38;1758323;81;21028;-41
2022/10/25 06:33:47;;;;;;;19.52;14.83;;;;;;;13.65;68.24;99338.02;1756543;81;21135;-41
2022/10/25 06:36:21;;;;;;;19.35;14.98;;;;;;;13.51;68.68;99335.96;1750483;81;21517;-41
2022/10/25 06:38:48;;;;;;;17.42;12.90;;;;;;;13.47;68.77;99334.58;1756934;81;20934;-41
2022/10/25 06:41:20;;;;;;;17.17;13.25;;;;;;;13.46;68.91;99334.38;1756581;81;20964;-41
2022/10/25 06:43:48;;;;;;;19.35;13.13;;;;;;;13.56;68.94;99328.02;1756922;81;21023;-41
2022/10/25 06:46:25;;;;;;;18.70;14.40;;;;;;;13.64;68.89;99326.91;1756902;81;20886;-41
2022/10/25 06:48:55;;;;;;;23.55;13.70;;;;;;;13.66;68.70;99326.72;1751538;81;21020;-41
2022/10/25 06:51:23;;;;;;;17.23;13.68;;;;;;;13.66;68.87;99321.84;1748921;82;21004;-41
2022/10/25 06:53:58;;;;;;;20.65;13.83;;;;;;;13.73;68.70;99319.97;1749074;82;21011;-41
2022/10/25 06:56:26;;;;;;;14.80;12.73;;;;;;;13.77;68.55;99318.03;1748871;82;21036;-41
2022/10/25 06:58:53;;;;;;;15.80;12.55;;;;;;;13.84;68.47;99318.09;1749198;82;21269;-41
2022/10/25 07:01:21;;;;;;;15.88;13.88;;;;;;;13.92;68.08;99316.94;1748912;82;20977;-41
2022/10/25 07:03:49;;;;;;;17.07;13.05;;;;;;;13.98;67.91;99311.91;1748979;82;21003;-41
2022/10/25 07:06:32;;;;;;;16.35;13.43;;;;;;;13.99;67.81;99313.45;1748890;82;21026;-41
2022/10/25 07:08:59;;;;;;;16.65;13.35;;;;;;;14.01;68.01;99319.31;1749114;81;20985;-41
2022/10/25 07:11:28;;;;;;;17.10;12.58;;;;;;;14.04;68.04;99317.17;1748874;82;21133;-41
2022/10/25 07:13:57;;;;;;;16.02;12.63;;;;;;;14.05;67.65;99317.38;1749037;82;21636;-41
2022/10/25 07:16:24;;;;;;;17.10;12.18;;;;;;;14.08;67.84;99318.57;1748882;82;20985;-41
2022/10/25 07:18:51;;;;;;;16.52;13.30;;;;;;;14.17;67.91;99319.78;1748874;82;20996;-41
2022/10/25 07:21:20;;;;;;;17.82;13.70;;;;;;;14.27;67.78;99313.58;1748927;82;21064;-41
2022/10/25 07:23:47;;;;;;;16.50;12.07;;;;;;;14.34;67.66;99319.04;1748999;82;21902;-41
2022/10/25 07:26:25;;;;;;;17.62;13.22;;;;;;;14.42;67.48;99309.56;1749240;82;20919;-41
2022/10/25 07:28:53;;;;;;;14.47;12.03;;;;;;;14.48;67.05;99310.72;1748871;82;21537;-41
2022/10/25 07:31:26;;;;;;;15.93;13.40;;;;;;;14.48;67.12;99305.27;1749087;82;21082;-41
2022/10/25 07:33:54;;;;;;;15.05;12.20;;;;;;;14.52;66.92;99315.63;1748906;82;21095;-41
2022/10/25 07:36:21;;;;;;;13.75;12.05;;;;;;;14.54;66.78;99313.27;1749012;82;21133;-41
2022/10/25 07:38:48;;;;;;;16.52;11.75;;;;;;;14.64;67.09;99309.20;1748915;82;21024;-41
2022/10/25 07:41:15;;;;;;;12.98;10.82;;;;;;;14.75;65.66;99301.05;1749202;82;21495;-41
2022/10/25 07:43:42;;;;;;;15.50;12.25;;;;;;;14.78;65.53;99298.89;1749052;82;21016;-41
2022/10/25 07:46:09;;;;;;;16.52;11.73;;;;;;;14.79;65.51;99293.63;1749151;82;21016;-41
2022/10/25 07:48:36;;;;;;;12.70;11.25;;;;;;;14.81;65.25;99283.13;1749022;82;21189;-41
2022/10/25 07:51:10;;;;;;;16.70;12.55;;;;;;;14.87;65.44;99280.76;1749062;82;20953;-41
2022/10/25 07:53:38;;;;;;;16.87;11.57;;;;;;;14.94;65.30;99269.86;1749284;82;21011;-41
2022/10/25 07:56:09;;;;;;;14.87;10.63;;;;;;;15.01;65.46;99270.62;1749090;82;20965;-41
2022/10/25 07:58:37;;;;;;;12.20;10.43;;;;;;;15.13;65.45;99274.33;1748991;82;21531;-41
2022/10/25 08:01:07;;;;;;;17.55;11.53;;;;;;;15.29;64.55;99267.68;1749136;82;21227;-41
2022/10/25 08:03:34;;;;;;;14.00;11.35;;;;;;;15.37;64.76;99266.48;1748976;82;20965;-41
2022/10/25 08:06:01;;;;;;;14.13;11.25;;;;;;;15.45;64.24;99275.64;1742990;82;21379;-41
2022/10/25 08:08:29;;;;;;;15.98;11.43;;;;;;;15.52;64.31;99270.20;1748964;82;21021;-41
2022/10/25 08:10:56;;;;;;;14.30;11.15;;;;;;;15.59;63.92;99271.53;1749104;82;20997;-42
2022/10/25 08:13:23;;;;;;;15.80;11.55;;;;;;;15.65;63.27;99283.63;1749091;82;21222;-41
2022/10/25 08:15:51;;;;;;;18.10;15.78;;;;;;;15.67;62.72;99278.35;1748994;82;20942;-41
2022/10/25 08:18:19;;;;;;;15.00;11.57;;;;;;;15.67;63.01;99280.50;1749205;82;21503;-42
2022/10/25 08:20:46;;;;;;;12.95;11.10;;;;;;;15.70;63.13;99281.06;1748974;82;21801;-41
2022/10/25 08:23:13;;;;;;;17.42;11.12;;;;;;;15.76;62.98;99280.08;1748935;82;21570;-41
2022/10/25 08:25:40;;;;;;;13.65;10.05;;;;;;;15.85;62.60;99288.05;1748903;82;21140;-41
2022/10/25 08:28:08;;;;;;;15.68;12.05;;;;;;;15.89;61.80;99281.20;1748903;82;21516;-42
2022/10/25 08:30:36;;;;;;;18.55;13.28;;;;;;;15.89;61.64;99283.34;1748875;82;20883;-42
2022/10/25 08:33:03;;;;;;;22.90;13.08;;;;;;;15.86;61.34;99284.15;1748841;82;21541;-42
2022/10/25 08:35:30;;;;;;;14.00;11.38;;;;;;;15.81;60.96;99281.04;1747923;82;21020;-41
2022/10/25 08:38:00;;;;;;;16.93;11.03;;;;;;;15.74;61.33;99272.27;1719141;83;21167;-41
2022/10/25 08:40:51;;;;;;;15.18;11.08;;;;;;;15.72;61.76;99271.90;1719294;83;21047;-41
2022/10/25 08:43:45;;;;;;;14.40;11.75;;;;;;;15.69;61.53;99271.30;1719072;83;21045;-42
2022/10/25 08:46:22;;;;;;;15.45;12.23;;;;;;;15.62;61.60;99261.78;1719177;83;21072;-41
2022/10/25 08:48:55;;;;;;;18.80;14.30;;;;;;;15.57;62.24;99268.42;1719013;83;21017;-42
2022/10/25 08:51:35;;;;;;;17.45;11.75;;;;;;;15.58;62.51;99267.27;1718909;83;21086;-41
2022/10/25 08:54:07;;;;;;;12.93;10.82;;;;;;;15.63;61.83;99261.39;1719271;83;21514;-41
2022/10/25 08:56:35;;;;;;;13.88;10.78;;;;;;;15.68;61.58;99253.37;1692709;83;21020;-41
2022/10/25 08:59:02;;;;;;;12.70;10.58;;;;;;;15.71;61.89;99247.10;1669571;83;20937;-42
2022/10/25 09:01:37;;;;;;;13.70;11.70;;;;;;;15.75;61.96;99248.45;1719150;83;21064;-42
2022/10/25 09:04:04;;;;;;;14.63;12.15;;;;;;;15.80;61.59;99248.82;1719212;83;21205;-41
2022/10/25 09:06:55;;;;;;;12.90;11.38;;;;;;;15.82;61.55;99253.91;1719078;83;21004;-42
2022/10/25 09:10:00;;;;;;;16.67;12.75;;;;;;;15.81;61.51;99251.75;1665324;83;21628;-42
2022/10/25 09:12:38;;;;;;;14.90;12.68;;;;;;;15.78;61.94;99242.96;1719147;83;21027;-41
2022/10/25 09:15:33;;;;;;;17.25;12.85;;;;;;;15.79;62.51;99251.36;1719170;83;21018;-41
2022/10/25 09:18:02;;;;;;;20.08;12.98;;;;;;;15.82;62.48;99247.85;1718941;83;23164;-41
2022/10/25 09:20:36;;;;;;;17.30;12.88;;;;;;;15.85;62.84;99249.78;1693151;83;20968;-41
2022/10/25 09:23:29;;;;;;;15.10;12.40;;;;;;;15.93;62.67;99252.66;1719382;83;20997;-42
2022/10/25 09:26:04;;;;;;;16.10;12.30;;;;;;;16.01;62.37;99250.11;1718981;83;21467;-42
2022/10/25 09:28:50;;;;;;;15.25;12.90;;;;;;;16.04;62.11;99256.14;1719090;82;21598;-42
2022/10/25 09:31:22;;;;;;;15.83;13.13;;;;;;;16.06;62.24;99257.11;1719098;83;21226;-41
2022/10/25 09:33:53;;;;;;;19.90;13.15;;;;;;;16.08;62.09;99260.21;1719018;83;21538;-42
2022/10/25 09:36:20;;;;;;;15.03;12.55;;;;;;;16.07;62.13;99255.33;1718789;83;21024;-42
2022/10/25 09:38:52;;;;;;;14.28;11.93;;;;;;;16.06;62.21;99252.42;1719056;83;21013;-42
2022/10/25 09:41:43;;;;;;;13.30;11.15;;;;;;;16.07;62.32;99249.11;1719167;83;21507;-42
2022/10/25 09:44:22;;;;;;;14.25;11.68;;;;;;;16.07;62.17;99249.86;1718880;83;21868;-41
2022/10/25 09:47:03;;;;;;;14.65;11.53;;;;;;;16.03;62.51;99247.73;1718964;83;21005;-41
2022/10/25 09:49:52;;;;;;;13.58;11.03;;;;;;;16.01;62.29;99246.59;1720037;83;21579;-41
2022/10/25 09:52:43;;;;;;;13.90;10.38;;;;;;;15.99;62.17;99249.71;1721194;82;21646;-42
2022/10/25 09:55:27;;;;;;;13.78;10.43;;;;;;;16.01;62.31;99245.22;1721378;83;21081;-41
2022/10/25 09:57:54;;;;;;;13.70;9.93;;;;;;;15.91;62.03;99225.55;1715789;83;21119;-41
2022/10/25 10:00:20;;;;;;;13.90;10.40;;;;;;;16.05;62.04;99248.13;1721485;83;20937;-42
2022/10/25 10:02:47;;;;;;;13.35;10.50;;;;;;;16.08;61.77;99248.69;1721191;83;21033;-41
2022/10/25 10:05:16;;;;;;;15.18;10.53;;;;;;;16.11;61.69;99244.98;1715406;83;21519;-42
2022/10/25 10:07:47;;;;;;;12.58;10.45;;;;;;;16.14;61.79;99242.22;1721270;83;21084;-42
2022/10/25 10:10:20;;;;;;;13.65;10.65;;;;;;;16.18;61.57;99244.34;1721370;83;21266;-42
2022/10/25 10:13:02;;;;;;;15.32;11.20;;;;;;;16.18;61.49;99239.45;1721503;83;20981;-41
2022/10/25 10:15:37;;;;;;;14.43;11.25;;;;;;;16.14;61.66;99238.70;1721360;83;20973;-42
2022/10/25 10:18:24;;;;;;;14.87;11.50;;;;;;;16.10;61.76;99242.83;1721620;83;21534;-41
2022/10/25 10:21:13;;;;;;;17.10;12.10;;;;;;;16.06;61.70;99234.66;1721728;83;21040;-41
2022/10/25 10:23:49;;;;;;;15.68;11.55;;;;;;;16.00;61.70;99230.77;1721382;83;22039;-42
2022/10/25 10:26:27;;;;;;;15.28;13.20;;;;;;;15.93;61.72;99235.48;1721254;83;20906;-42
2022/10/25 10:29:11;;;;;;;15.95;11.10;;;;;;;15.85;61.95;99233.96;1721415;83;20985;-42
2022/10/25 10:31:41;;;;;;;16.17;11.40;;;;;;;15.82;61.96;99233.40;1721593;83;21061;-42
2022/10/25 10:34:38;;;;;;;17.20;11.18;;;;;;;15.83;62.05;99236.33;1721592;83;21009;-41
2022/10/25 10:37:28;;;;;;;16.65;11.50;;;;;;;15.79;62.24;99231.44;1720591;83;21324;-41
2022/10/25 10:40:02;;;;;;;17.65;13.18;;;;;;;15.75;62.61;99231.46;1721191;83;20942;-42
2022/10/25 10:42:36;;;;;;;19.30;15.65;;;;;;;15.73;62.80;99235.20;1721413;83;21043;-41
2022/10/25 10:45:11;;;;;;;41.28;15.78;;;;;;;15.72;62.90;99228.17;1721441;83;21028;-41
2022/10/25 10:47:56;;;;;;;26.52;14.65;;;;;;;15.69;63.07;99233.05;1715594;83;21523;-42
2022/10/25 10:50:27;;;;;;;22.75;14.40;;;;;;;15.65;63.29;99226.23;1716042;83;21091;-42
2022/10/25 10:53:24;;;;;;;16.35;11.83;;;;;;;15.57;63.67;99229.39;1707488;83;21480;-42
2022/10/25 10:55:52;;;;;;;21.57;14.05;;;;;;;15.57;63.90;99233.48;1703635;83;21017;-42
2022/10/25 10:58:30;;;;;;;18.55;12.70;;;;;;;15.54;64.08;99235.66;1713582;83;21069;-41
2022/10/25 11:01:04;;;;;;;15.70;12.00;;;;;;;15.51;64.41;99231.75;1704540;83;21505;-42
2022/10/25 11:03:45;;;;;;;23.85;14.98;;;;;;;15.46;64.83;99229.39;1713780;82;21078;-42
2022/10/25 11:06:19;;;;;;;20.80;13.80;;;;;;;15.42;65.18;99229.20;1708165;83;21017;-42
2022/10/25 11:08:47;;;;;;;18.40;12.63;;;;;;;15.38;65.59;99227.86;1703475;83;21625;-41
2022/10/25 11:11:19;;;;;;;23.07;12.45;;;;;;;15.33;65.88;99228.27;1713574;83;21550;-41
2022/10/25 11:13:57;;;;;;;19.40;12.98;;;;;;;15.36;66.04;99223.95;1713835;83;20974;-41
2022/10/25 11:16:44;;;;;;;12.25;10.90;;;;;;;15.38;65.90;99215.57;1707975;83;21898;-41
2022/10/25 11:19:56;;;;;;;17.70;12.35;;;;;;;15.35;66.22;99216.92;1713765;83;20981;-42
2022/10/25 11:22:45;;;;;;;16.62;11.90;;;;;;;15.31;66.53;99218.30;1713935;83;21021;-42
2022/10/25 11:25:28;;;;;;;18.80;11.40;;;;;;;15.23;66.96;99209.36;1713848;83;21009;-42
2022/10/25 11:28:32;;;;;;;14.80;12.30;;;;;;;15.18;67.30;99217.17;1714044;82;21555;-41
2022/10/25 11:31:26;;;;;;;14.38;11.68;;;;;;;15.17;67.66;99215.61;1713900;82;21226;-41
2022/10/25 11:34:01;;;;;;;17.60;11.70;;;;;;;15.11;68.32;99220.69;1695841;82;21704;-42
2022/10/25 11:36:50;;;;;;;20.75;14.25;;;;;;;15.03;68.90;99214.27;1705490;83;20990;-41
2022/10/25 11:39:41;;;;;;;16.27;11.40;;;;;;;14.97;69.40;99219.34;1713842;83;21096;-41
2022/10/25 11:42:17;;;;;;;17.85;10.88;;;;;;;14.97;69.79;99219.34;1713398;82;21069;-42
2022/10/25 11:45:33;;;;;;;19.55;12.35;;;;;;;14.97;70.10;99216.61;1713836;83;22031;-41
2022/10/25 11:48:33;;;;;;;18.30;12.53;;;;;;;14.95;70.30;99214.09;1713625;83;21169;-41